Home > Products > Valid Products > TAF

000
FTUS45 KCYS 241235 AAA
TAFRWL
TAF AMD
KRWL 241235Z 2413/2512 27022G32KT P6SM VCSH SCT018 BKN030
     FM241800 30018G28KT P6SM BKN030
     FM250000 26015G25KT P6SM SCT100
     FM250900 24025G35KT P6SM SCT150=



000
FTUS45 KCYS 241235 AAA
TAFRWL
TAF AMD
KRWL 241235Z 2413/2512 27022G32KT P6SM VCSH SCT018 BKN030
     FM241800 30018G28KT P6SM BKN030
     FM250000 26015G25KT P6SM SCT100
     FM250900 24025G35KT P6SM SCT150=



000
FTUS45 KCYS 241139
TAFCYS
TAF
KCYS 241139Z 2412/2512 29016G26KT P6SM OVC100
     FM241800 33025G35KT P6SM VCSH SCT040 OVC070
     FM250000 32014KT P6SM BKN100=



000
FTUS45 KCYS 241139
TAFLAR
TAF
KLAR 241139Z 2412/2512 28018G28KT P6SM VCSH SCT020 BKN030
      TEMPO 2412/2416 3SM -SN BR BKN020
     FM241600 32018G28KT P6SM VCSH SCT025 BKN040
     FM250000 30014KT P6SM SCT040 BKN070
     FM250700 25016G26KT P6SM SCT100=



000
FTUS45 KCYS 241139
TAFRWL
TAF
KRWL 241139Z 2412/2512 27022G32KT P6SM OVC070
     FM241400 27022G32KT P6SM VCSH SCT018 BKN030
     FM241800 30018G28KT P6SM BKN030
     FM250000 26015G25KT P6SM SCT100
     FM250900 24025G35KT P6SM SCT150=



000
FTUS45 KCYS 241139
TAFLAR
TAF
KLAR 241139Z 2412/2512 28018G28KT P6SM VCSH SCT020 BKN030
      TEMPO 2412/2416 3SM -SN BR BKN020
     FM241600 32018G28KT P6SM VCSH SCT025 BKN040
     FM250000 30014KT P6SM SCT040 BKN070
     FM250700 25016G26KT P6SM SCT100=



000
FTUS45 KCYS 241139
TAFCYS
TAF
KCYS 241139Z 2412/2512 29016G26KT P6SM OVC100
     FM241800 33025G35KT P6SM VCSH SCT040 OVC070
     FM250000 32014KT P6SM BKN100=



000
FTUS45 KCYS 241139
TAFRWL
TAF
KRWL 241139Z 2412/2512 27022G32KT P6SM OVC070
     FM241400 27022G32KT P6SM VCSH SCT018 BKN030
     FM241800 30018G28KT P6SM BKN030
     FM250000 26015G25KT P6SM SCT100
     FM250900 24025G35KT P6SM SCT150=



000
FTUS45 KCYS 240530
TAFRWL
TAF
KRWL 240530Z 2406/2506 27020G32KT P6SM SCT050 BKN100
     FM240900 27022G32KT 6SM -SN BKN025 OVC050
      TEMPO 2410/2414 3SM -SN BKN015 OVC025
     FM241800 30018G28KT P6SM BKN050 BKN100
     FM250000 27015G25KT P6SM SCT100=



000
FTUS45 KCYS 240530
TAFLAR
TAF
KLAR 240530Z 2406/2506 29015G25KT P6SM SCT100
     FM240900 27020G30KT P6SM VCSH BKN050 OVC100
     FM241600 32018G28KT P6SM VCSH BKN050 BKN100
     FM242300 30014KT P6SM BKN100=



000
FTUS45 KCYS 240530
TAFCYS
TAF
KCYS 240530Z 2406/2506 29015G25KT P6SM SCT100
     FM241200 32022G35KT P6SM BKN050 BKN100
     FM250000 32015G25KT P6SM BKN100=



000
FTUS45 KCYS 240530
TAFRWL
TAF
KRWL 240530Z 2406/2506 27020G32KT P6SM SCT050 BKN100
     FM240900 27022G32KT 6SM -SN BKN025 OVC050
      TEMPO 2410/2414 3SM -SN BKN015 OVC025
     FM241800 30018G28KT P6SM BKN050 BKN100
     FM250000 27015G25KT P6SM SCT100=



000
FTUS45 KCYS 240530
TAFLAR
TAF
KLAR 240530Z 2406/2506 29015G25KT P6SM SCT100
     FM240900 27020G30KT P6SM VCSH BKN050 OVC100
     FM241600 32018G28KT P6SM VCSH BKN050 BKN100
     FM242300 30014KT P6SM BKN100=



000
FTUS45 KCYS 240530
TAFCYS
TAF
KCYS 240530Z 2406/2506 29015G25KT P6SM SCT100
     FM241200 32022G35KT P6SM BKN050 BKN100
     FM250000 32015G25KT P6SM BKN100=



000
FTUS45 KCYS 232327 CCA
TAFCYS
TAF COR
KCYS 232327Z 2323/2424 32015G30KT P6SM SCT070 SCT120
     FM240300 30020G30KT P6SM SCT100
     FM241200 30028G40KT P6SM BKN100=



000
FTUS45 KCYS 232327 CCA
TAFCYS
TAF COR
KCYS 232327Z 2323/2424 32015G30KT P6SM SCT070 SCT120
     FM240300 30020G30KT P6SM SCT100
     FM241200 30028G40KT P6SM BKN100=



000
FTUS45 KCYS 232320
TAFCYS
TAF
KCYS 232320Z 2400/2424 31025G35KT P6SM BKN070
     FM240200 30020G30KT P6SM SCT090
     FM241200 30028G40KT P6SM SCT090=



000
FTUS45 KCYS 232320
TAFRWL
TAF
KRWL 232320Z 2400/2424 26020G30KT P6SM SCT030 BKN050
     FM240900 25022G32KT P6SM VCSH BKN030=



000
FTUS45 KCYS 232320
TAFCYS
TAF
KCYS 232320Z 2400/2424 31025G35KT P6SM BKN070
     FM240200 30020G30KT P6SM SCT090
     FM241200 30028G40KT P6SM SCT090=



000
FTUS45 KCYS 232320
TAFLAR
TAF
KLAR 232320Z 2400/2424 32022G32KT P6SM VCSH SCT015 BKN060
     FM240200 31012G22KT P6SM SCT060
     FM240600 28025G35KT P6SM BKN040
     FM241600 21018G28KT P6SM BKN050=



000
FTUS45 KCYS 232320
TAFLAR
TAF
KLAR 232320Z 2400/2424 32022G32KT P6SM VCSH SCT015 BKN060
     FM240200 31012G22KT P6SM SCT060
     FM240600 28025G35KT P6SM BKN040
     FM241600 21018G28KT P6SM BKN050=



000
FTUS45 KCYS 232320
TAFRWL
TAF
KRWL 232320Z 2400/2424 26020G30KT P6SM SCT030 BKN050
     FM240900 25022G32KT P6SM VCSH BKN030=



000
FTUS45 KCYS 232214 AAA
TAFRWL
TAF AMD
KRWL 232214Z 2322/2418 27015G25KT 3SM -SN BKN020 BKN050
     FM240000 26020G30KT P6SM SCT030 BKN050
     FM240900 25022G32KT P6SM VCSH BKN030=



000
FTUS45 KCYS 232214 AAA
TAFRWL
TAF AMD
KRWL 232214Z 2322/2418 27015G25KT 3SM -SN BKN020 BKN050
     FM240000 26020G30KT P6SM SCT030 BKN050
     FM240900 25022G32KT P6SM VCSH BKN030=



000
FTUS45 KCYS 232213 AAA
TAFLAR
TAF AMD
KLAR 232213Z 2322/2418 32022G32KT P6SM VCSH SCT015 BKN060
      TEMPO 2322/2324 1SM -SN OVC015
     FM240600 28025G35KT P6SM BKN040=



000
FTUS45 KCYS 232213 AAA
TAFLAR
TAF AMD
KLAR 232213Z 2322/2418 32022G32KT P6SM VCSH SCT015 BKN060
      TEMPO 2322/2324 1SM -SN OVC015
     FM240600 28025G35KT P6SM BKN040=



000
FTUS45 KCYS 231720
TAFRWL
TAF
KRWL 231720Z 2318/2418 29020G30KT P6SM VCSH SCT020 BKN050
     FM240000 26020G30KT P6SM SCT030 BKN050
     FM240900 25022G32KT P6SM VCSH BKN030=



000
FTUS45 KCYS 231720
TAFRWL
TAF
KRWL 231720Z 2318/2418 29020G30KT P6SM VCSH SCT020 BKN050
     FM240000 26020G30KT P6SM SCT030 BKN050
     FM240900 25022G32KT P6SM VCSH BKN030=



000
FTUS45 KCYS 231720
TAFLAR
TAF
KLAR 231720Z 2318/2418 32010G20KT P6SM SCT060
     FM232000 32022G32KT P6SM BKN060
     FM240600 28025G35KT P6SM BKN040=



000
FTUS45 KCYS 231720
TAFLAR
TAF
KLAR 231720Z 2318/2418 32010G20KT P6SM SCT060
     FM232000 32022G32KT P6SM BKN060
     FM240600 28025G35KT P6SM BKN040=



000
FTUS45 KCYS 231720
TAFCYS
TAF
KCYS 231720Z 2318/2418 31025G35KT P6SM BKN070
     FM240400 30020G30KT P6SM SCT090
     FM241200 30028G40KT P6SM SCT090=



000
FTUS45 KCYS 231720
TAFCYS
TAF
KCYS 231720Z 2318/2418 31025G35KT P6SM BKN070
     FM240400 30020G30KT P6SM SCT090
     FM241200 30028G40KT P6SM SCT090=



000
FTUS45 KCYS 231137
TAFCYS
TAF
KCYS 231137Z 2312/2412 32020G30KT P6SM SCT070 BKN100
     FM231800 33025G35KT P6SM BKN070
     FM240400 30022G34KT P6SM SCT090=



000
FTUS45 KCYS 231137
TAFRWL
TAF
KRWL 231137Z 2312/2412 28018G28KT P6SM SCT025 BKN050
     FM231800 30020G30KT P6SM VCSH SCT020 BKN030
     FM240000 26020G30KT P6SM SCT030 BKN050
     FM240900 25022G32KT P6SM VCSH BKN030=



000
FTUS45 KCYS 231137
TAFLAR
TAF
KLAR 231137Z 2312/2412 31012KT P6SM SCT060 OVC080
     FM231700 32022G32KT P6SM BKN060
     FM240600 28025G35KT P6SM BKN040=



000
FTUS45 KCYS 231137
TAFCYS
TAF
KCYS 231137Z 2312/2412 32020G30KT P6SM SCT070 BKN100
     FM231800 33025G35KT P6SM BKN070
     FM240400 30022G34KT P6SM SCT090=



000
FTUS45 KCYS 231137
TAFRWL
TAF
KRWL 231137Z 2312/2412 28018G28KT P6SM SCT025 BKN050
     FM231800 30020G30KT P6SM VCSH SCT020 BKN030
     FM240000 26020G30KT P6SM SCT030 BKN050
     FM240900 25022G32KT P6SM VCSH BKN030=



000
FTUS45 KCYS 231137
TAFLAR
TAF
KLAR 231137Z 2312/2412 31012KT P6SM SCT060 OVC080
     FM231700 32022G32KT P6SM BKN060
     FM240600 28025G35KT P6SM BKN040=



000
FTUS45 KCYS 230701 AAA
TAFLAR
TAF AMD
KLAR 230701Z 2307/2406 30018G28KT P6SM VCSH SCT020 BKN040
      TEMPO 2307/2309 1SM -SN BR BKN020
     FM230900 30018G25KT P6SM BKN050 OVC100
     FM231400 32022G32KT P6SM BKN100 BKN200=



000
FTUS45 KCYS 230701 AAA
TAFLAR
TAF AMD
KLAR 230701Z 2307/2406 30018G28KT P6SM VCSH SCT020 BKN040
      TEMPO 2307/2309 1SM -SN BR BKN020
     FM230900 30018G25KT P6SM BKN050 OVC100
     FM231400 32022G32KT P6SM BKN100 BKN200=



000
FTUS45 KCYS 230534
TAFRWL
TAF
KRWL 230534Z 2306/2406 27020G32KT P6SM BKN025 BKN050 OVC100
     FM230900 28018G28KT P6SM -SN BKN015 OVC025
     FM231500 30020G30KT P6SM -SN BKN025 BKN050 OVC100
     FM240000 28020G30KT P6SM BKN100 BKN250=



000
FTUS45 KCYS 230534
TAFCYS
TAF
KCYS 230534Z 2306/2406 28018KT P6SM OVC100
     FM230700 32020G30KT P6SM VCSH BKN050 OVC100
      TEMPO 2309/2312 5SM -SN BKN015 OVC050
     FM231400 33018G28KT P6SM BKN050 OVC100
     FM231800 33025G35KT P6SM BKN100 BKN200=



000
FTUS45 KCYS 230534
TAFLAR
TAF
KLAR 230534Z 2306/2406 27020G28KT P6SM VCSH BKN050 OVC100
      TEMPO 2306/2309 5SM -SN BKN015 OVC050
     FM230900 30018G25KT P6SM BKN050 OVC100
     FM231400 32022G32KT P6SM BKN100 BKN200=



000
FTUS45 KCYS 230534
TAFLAR
TAF
KLAR 230534Z 2306/2406 27020G28KT P6SM VCSH BKN050 OVC100
      TEMPO 2306/2309 5SM -SN BKN015 OVC050
     FM230900 30018G25KT P6SM BKN050 OVC100
     FM231400 32022G32KT P6SM BKN100 BKN200=



000
FTUS45 KCYS 230534
TAFCYS
TAF
KCYS 230534Z 2306/2406 28018KT P6SM OVC100
     FM230700 32020G30KT P6SM VCSH BKN050 OVC100
      TEMPO 2309/2312 5SM -SN BKN015 OVC050
     FM231400 33018G28KT P6SM BKN050 OVC100
     FM231800 33025G35KT P6SM BKN100 BKN200=



000
FTUS45 KCYS 230534
TAFRWL
TAF
KRWL 230534Z 2306/2406 27020G32KT P6SM BKN025 BKN050 OVC100
     FM230900 28018G28KT P6SM -SN BKN015 OVC025
     FM231500 30020G30KT P6SM -SN BKN025 BKN050 OVC100
     FM240000 28020G30KT P6SM BKN100 BKN250=



000
FTUS45 KCYS 230305 AAA
TAFLAR
TAF AMD
KLAR 230305Z 2303/2324 26020G32KT P6SM VCSH BKN050 OVC080
      TEMPO 2304/2308 3SM -SN BKN015 OVC025
     FM231000 29014KT P6SM BKN025 OVC050
     FM231500 31015G25KT P6SM BKN050=



000
FTUS45 KCYS 230305 AAA
TAFLAR
TAF AMD
KLAR 230305Z 2303/2324 26020G32KT P6SM VCSH BKN050 OVC080
      TEMPO 2304/2308 3SM -SN BKN015 OVC025
     FM231000 29014KT P6SM BKN025 OVC050
     FM231500 31015G25KT P6SM BKN050=



000
FTUS45 KCYS 230139 AAB
TAFRWL
TAF AMD
KRWL 230139Z 2302/2324 24020G30KT 5SM -SN SCT007 BKN025 OVC040
      TEMPO 2302/2304 3/4SM -SN BKN007 OVC015
     FM230400 25028G42KT 5SM -SN SCT007 OVC025
     FM230900 27020G30KT P6SM SCT015 BKN025
     FM231500 29020G30KT P6SM SCT025 BKN100=



000
FTUS45 KCYS 230102 AAA
TAFRWL
TAF AMD
KRWL 230102Z 2301/2324 23020G35KT 5SM -SN BKN030 OVC050
      TEMPO 2301/2303 2SM -SN OVC020
     FM230300 25028G42KT 5SM -SN SCT007 OVC025
     FM230900 27020G30KT P6SM SCT015 BKN025
     FM231500 29020G30KT P6SM SCT025 BKN100=



000
FTUS45 KCYS 222320
TAFRWL
TAF
KRWL 222320Z 2300/2324 23020G30KT 5SM -SN SCT007 BKN025 OVC040
     FM230300 25028G42KT 5SM -SN SCT007 OVC025
     FM230900 27020G30KT P6SM SCT015 BKN025
     FM231500 29020G30KT P6SM SCT025 BKN100=



000
FTUS45 KCYS 222320
TAFCYS
TAF
KCYS 222320Z 2300/2324 29018G28KT P6SM BKN080 OVC100
     FM230300 30020G30KT P6SM OVC080
     FM231200 32020G30KT P6SM BKN100=



000
FTUS45 KCYS 222320
TAFCYS
TAF
KCYS 222320Z 2300/2324 29018G28KT P6SM BKN080 OVC100
     FM230300 30020G30KT P6SM OVC080
     FM231200 32020G30KT P6SM BKN100=



000
FTUS45 KCYS 222320
TAFLAR
TAF
KLAR 222320Z 2300/2324 26028G38KT P6SM VCSH BKN080 OVC100
     FM230300 29018G28KT 5SM -SHSN BKN025 OVC050
      TEMPO 2303/2306 1SM -SN SCT005 OVC015
     FM230800 29014KT P6SM SCT005 OVC015
     FM231500 31015G25KT P6SM SCT015 BKN050=



000
FTUS45 KCYS 222320
TAFRWL
TAF
KRWL 222320Z 2300/2324 23020G30KT 5SM -SN SCT007 BKN025 OVC040
     FM230300 25028G42KT 5SM -SN SCT007 OVC025
     FM230900 27020G30KT P6SM SCT015 BKN025
     FM231500 29020G30KT P6SM SCT025 BKN100=



000
FTUS45 KCYS 222320
TAFLAR
TAF
KLAR 222320Z 2300/2324 26028G38KT P6SM VCSH BKN080 OVC100
     FM230300 29018G28KT 5SM -SHSN BKN025 OVC050
      TEMPO 2303/2306 1SM -SN SCT005 OVC015
     FM230800 29014KT P6SM SCT005 OVC015
     FM231500 31015G25KT P6SM SCT015 BKN050=



000
FTUS45 KCYS 222114 AAC
TAFRWL
TAF AMD
KRWL 222114Z 2221/2318 23030G45KT 1SM -SN BKN007 OVC015
     FM222300 25028G42KT 2SM -SN OVC015
     FM230900 27020G30KT P6SM SCT015 BKN025=



000
FTUS45 KCYS 222114 AAC
TAFRWL
TAF AMD
KRWL 222114Z 2221/2318 23030G45KT 1SM -SN BKN007 OVC015
     FM222300 25028G42KT 2SM -SN OVC015
     FM230900 27020G30KT P6SM SCT015 BKN025=



000
FTUS45 KCYS 222056 AAB
TAFRWL
TAF AMD
KRWL 222056Z 2221/2318 23030G45KT 1SM -SN SCT007 OVC015
     FM222300 25028G42KT 2SM -SN OVC015
     FM230900 27020G30KT P6SM SCT015 BKN025=



000
FTUS45 KCYS 222056 AAB
TAFRWL
TAF AMD
KRWL 222056Z 2221/2318 23030G45KT 1SM -SN SCT007 OVC015
     FM222300 25028G42KT 2SM -SN OVC015
     FM230900 27020G30KT P6SM SCT015 BKN025=



000
FTUS45 KCYS 221950 AAA
TAFRWL
TAF AMD
KRWL 221950Z 2220/2318 23030G45KT 5SM -SN SCT015 BKN025
      TEMPO 2220/2223 2SM -SN SCT007 OVC015
     FM222300 25028G42KT 2SM -SN OVC015
     FM230900 27020G30KT P6SM SCT015 BKN025=



000
FTUS45 KCYS 221950 AAA
TAFRWL
TAF AMD
KRWL 221950Z 2220/2318 23030G45KT 5SM -SN SCT015 BKN025
      TEMPO 2220/2223 2SM -SN SCT007 OVC015
     FM222300 25028G42KT 2SM -SN OVC015
     FM230900 27020G30KT P6SM SCT015 BKN025=



000
FTUS45 KCYS 221720
TAFLAR
TAF
KLAR 221720Z 2218/2318 24030G45KT P6SM SCT150 BKN200
     FM230000 26028G38KT P6SM OVC100
     FM230700 29018G28KT 3SM -SHSN SCT015 BKN025=



000
FTUS45 KCYS 221720
TAFCYS
TAF
KCYS 221720Z 2218/2318 22010G20KT P6SM BKN250
     FM221900 26025G38KT P6SM SCT150 BKN200
     FM230000 26015G25KT P6SM SCT150
     FM230300 30020G30KT P6SM BKN150=



000
FTUS45 KCYS 221720
TAFRWL
TAF
KRWL 221720Z 2218/2318 23030G45KT P6SM VCSH SCT025 BKN040
     FM222100 23030G45KT P6SM -SNRA SCT015 BKN025
     FM230000 25028G42KT 2SM -SN OVC015
     FM230900 27020G30KT P6SM SCT015 BKN025=



000
FTUS45 KCYS 221720
TAFLAR
TAF
KLAR 221720Z 2218/2318 24030G45KT P6SM SCT150 BKN200
     FM230000 26028G38KT P6SM OVC100
     FM230700 29018G28KT 3SM -SHSN SCT015 BKN025=



000
FTUS45 KCYS 221720
TAFRWL
TAF
KRWL 221720Z 2218/2318 23030G45KT P6SM VCSH SCT025 BKN040
     FM222100 23030G45KT P6SM -SNRA SCT015 BKN025
     FM230000 25028G42KT 2SM -SN OVC015
     FM230900 27020G30KT P6SM SCT015 BKN025=



000
FTUS45 KCYS 221720
TAFCYS
TAF
KCYS 221720Z 2218/2318 22010G20KT P6SM BKN250
     FM221900 26025G38KT P6SM SCT150 BKN200
     FM230000 26015G25KT P6SM SCT150
     FM230300 30020G30KT P6SM BKN150=



000
FTUS45 KCYS 221142
TAFLAR
TAF
KLAR 221142Z 2212/2312 24022G30KT P6SM BKN250
     FM221700 24028G40KT P6SM SCT150 BKN200
     FM230000 26028G38KT P6SM OVC100
     FM230700 29018G28KT 3SM -SHSN SCT015 BKN025=



000
FTUS45 KCYS 221142
TAFCYS
TAF
KCYS 221142Z 2212/2312 28008KT P6SM SCT250
     FM221400 25018G28KT P6SM BKN250
     FM221900 26025G38KT P6SM SCT150 BKN200
     FM230000 26015G25KT P6SM SCT150=



000
FTUS45 KCYS 221142
TAFRWL
TAF
KRWL 221142Z 2212/2312 23020G30KT P6SM BKN100
     FM221800 23025G35KT P6SM -SHRA SCT025 BKN040
     FM222100 23030G45KT P6SM -SNRA SCT015 BKN025
     FM230000 25028G42KT 2SM -SN OVC015
     FM230900 26015G25KT P6SM SCT015 BKN025=



000
FTUS45 KCYS 221142
TAFRWL
TAF
KRWL 221142Z 2212/2312 23020G30KT P6SM BKN100
     FM221800 23025G35KT P6SM -SHRA SCT025 BKN040
     FM222100 23030G45KT P6SM -SNRA SCT015 BKN025
     FM230000 25028G42KT 2SM -SN OVC015
     FM230900 26015G25KT P6SM SCT015 BKN025=



000
FTUS45 KCYS 221142
TAFLAR
TAF
KLAR 221142Z 2212/2312 24022G30KT P6SM BKN250
     FM221700 24028G40KT P6SM SCT150 BKN200
     FM230000 26028G38KT P6SM OVC100
     FM230700 29018G28KT 3SM -SHSN SCT015 BKN025=



000
FTUS45 KCYS 221142
TAFCYS
TAF
KCYS 221142Z 2212/2312 28008KT P6SM SCT250
     FM221400 25018G28KT P6SM BKN250
     FM221900 26025G38KT P6SM SCT150 BKN200
     FM230000 26015G25KT P6SM SCT150=



000
FTUS45 KCYS 220520
TAFCYS
TAF
KCYS 220520Z 2206/2306 26012KT P6SM FEW250
     FM221400 26018G28KT P6SM BKN200
     FM221900 26025G38KT P6SM SCT100 BKN150=



000
FTUS45 KCYS 220520
TAFLAR
TAF
KLAR 220520Z 2206/2306 23012KT P6SM SCT250
     FM221000 24021G30KT P6SM BKN200
     FM221700 24033G40KT P6SM SCT100 BKN150
     FM230000 26028G38KT P6SM OVC100=



000
FTUS45 KCYS 220520
TAFRWL
TAF
KRWL 220520Z 2206/2306 24013KT P6SM SCT250
     FM220800 24015G26KT P6SM BKN200
     FM221000 23020G30KT P6SM BKN100
     FM221800 23028G40KT P6SM -RA BKN030 OVC080
     FM230000 25028G42KT 3SM -SN SCT015 OVC025=



000
FTUS45 KCYS 220520
TAFCYS
TAF
KCYS 220520Z 2206/2306 26012KT P6SM FEW250
     FM221400 26018G28KT P6SM BKN200
     FM221900 26025G38KT P6SM SCT100 BKN150=



000
FTUS45 KCYS 220520
TAFLAR
TAF
KLAR 220520Z 2206/2306 23012KT P6SM SCT250
     FM221000 24021G30KT P6SM BKN200
     FM221700 24033G40KT P6SM SCT100 BKN150
     FM230000 26028G38KT P6SM OVC100=



000
FTUS45 KCYS 220520
TAFRWL
TAF
KRWL 220520Z 2206/2306 24013KT P6SM SCT250
     FM220800 24015G26KT P6SM BKN200
     FM221000 23020G30KT P6SM BKN100
     FM221800 23028G40KT P6SM -RA BKN030 OVC080
     FM230000 25028G42KT 3SM -SN SCT015 OVC025=



000
FTUS45 KCYS 212321
TAFCYS
TAF
KCYS 212321Z 2200/2224 26009KT P6SM SKC
     FM220800 26012KT P6SM SKC
     FM221500 26018G28KT P6SM BKN200
     FM221900 26029G42KT P6SM BKN150=



000
FTUS45 KCYS 212321
TAFLAR
TAF
KLAR 212321Z 2200/2224 24009KT P6SM SKC
     FM220700 22012KT P6SM SKC
     FM221000 23021G31KT P6SM SCT200
     FM221700 23033G45KT P6SM BKN150=



000
FTUS45 KCYS 212321
TAFRWL
TAF
KRWL 212321Z 2200/2224 24011KT P6SM SKC
     FM220800 24015G24KT P6SM SCT200
     FM221000 24019G29KT P6SM BKN100
     FM221800 22027G40KT P6SM -RA BKN030 OVC080=



000
FTUS45 KCYS 212321
TAFLAR
TAF
KLAR 212321Z 2200/2224 24009KT P6SM SKC
     FM220700 22012KT P6SM SKC
     FM221000 23021G31KT P6SM SCT200
     FM221700 23033G45KT P6SM BKN150=



000
FTUS45 KCYS 212321
TAFRWL
TAF
KRWL 212321Z 2200/2224 24011KT P6SM SKC
     FM220800 24015G24KT P6SM SCT200
     FM221000 24019G29KT P6SM BKN100
     FM221800 22027G40KT P6SM -RA BKN030 OVC080=



000
FTUS45 KCYS 212321
TAFCYS
TAF
KCYS 212321Z 2200/2224 26009KT P6SM SKC
     FM220800 26012KT P6SM SKC
     FM221500 26018G28KT P6SM BKN200
     FM221900 26029G42KT P6SM BKN150=



000
FTUS45 KCYS 212229 AAA
TAFCYS
TAF AMD
KCYS 212229Z 2122/2218 25010KT P6SM SCT070
     FM220200 26012KT P6SM SCT070=



000
FTUS45 KCYS 212229 AAA
TAFCYS
TAF AMD
KCYS 212229Z 2122/2218 25010KT P6SM SCT070
     FM220200 26012KT P6SM SCT070=



000
FTUS45 KCYS 211752
TAFLAR
TAF
KLAR 211752Z 2118/2218 22012G23KT P6SM BKN130
     FM211800 23012KT P6SM SCT130=



000
FTUS45 KCYS 211752
TAFCYS
TAF
KCYS 211752Z 2118/2218 25014G25KT P6SM SCT070
     FM220200 26012KT P6SM SCT070=



000
FTUS45 KCYS 211752
TAFRWL
TAF
KRWL 211752Z 2118/2218 25011KT P6SM SCT070
     FM211800 24020G31KT P6SM BKN070
     FM220300 24016G28KT P6SM SCT100=



000
FTUS45 KCYS 211752
TAFCYS
TAF
KCYS 211752Z 2118/2218 25014G25KT P6SM SCT070
     FM220200 26012KT P6SM SCT070=



000
FTUS45 KCYS 211752
TAFLAR
TAF
KLAR 211752Z 2118/2218 22012G23KT P6SM BKN130
     FM211800 23012KT P6SM SCT130=



000
FTUS45 KCYS 211752
TAFRWL
TAF
KRWL 211752Z 2118/2218 25011KT P6SM SCT070
     FM211800 24020G31KT P6SM BKN070
     FM220300 24016G28KT P6SM SCT100=



    US Dept of Commerce
    National Oceanic and Atmospheric Administration
    National Weather Service
    1325 East West Highway
    Silver Spring, MD 20910
    Page Author: NWS Internet Services Team
Disclaimer
Information Quality
Credits
Glossary
Privacy Policy
Freedom of Information Act (FOIA)
About Us
Career Opportunities